createdAt,value
2023-01-30T00:00:29.966Z,0.44
2023-01-30T00:01:29.943Z,0.40
2023-01-30T00:02:29.922Z,0.31
2023-01-30T00:03:29.903Z,0.41
2023-01-30T00:04:29.880Z,0.37
2023-01-30T00:05:29.865Z,0.43
2023-01-30T00:06:29.847Z,0.31
2023-01-30T00:07:29.825Z,0.22
2023-01-30T00:08:29.807Z,0.25
2023-01-30T00:09:29.787Z,0.30
2023-01-30T00:10:29.763Z,0.30
2023-01-30T00:11:29.747Z,0.37
2023-01-30T00:12:29.736Z,0.30
2023-01-30T00:13:29.708Z,0.38
2023-01-30T00:14:29.685Z,0.38
2023-01-30T00:15:29.671Z,0.23
2023-01-30T00:16:29.703Z,0.26
2023-01-30T00:17:29.632Z,0.28
2023-01-30T00:18:29.607Z,0.30
2023-01-30T00:19:29.595Z,0.31
2023-01-30T00:20:29.568Z,0.31
2023-01-30T00:21:29.552Z,0.30
2023-01-30T00:22:29.530Z,0.35
2023-01-30T00:23:29.511Z,0.30
2023-01-30T00:24:29.575Z,0.22
2023-01-30T00:25:29.817Z,0.23
2023-01-30T00:26:29.496Z,0.31
2023-01-30T00:27:29.437Z,0.37
2023-01-30T00:28:29.413Z,0.33
2023-01-30T00:29:29.395Z,0.53
2023-01-30T00:30:29.463Z,0.59
2023-01-30T00:31:29.409Z,0.34
2023-01-30T00:32:29.333Z,0.37
2023-01-30T00:33:29.319Z,0.43
2023-01-30T00:34:29.295Z,0.33
2023-01-30T00:35:29.284Z,0.35
2023-01-30T00:36:29.258Z,0.38
2023-01-30T00:37:29.239Z,0.34
2023-01-30T00:38:29.216Z,0.37
2023-01-30T00:39:29.199Z,0.34
2023-01-30T00:40:29.180Z,0.53
2023-01-30T00:41:29.162Z,0.48
2023-01-30T00:42:29.142Z,0.49
2023-01-30T00:43:29.127Z,0.48
2023-01-30T00:44:29.098Z,0.49
2023-01-30T00:45:29.319Z,0.57
2023-01-30T00:46:29.063Z,0.63
2023-01-30T00:47:29.042Z,0.59
2023-01-30T00:48:29.020Z,0.51
2023-01-30T00:49:29.164Z,0.60
2023-01-30T00:50:28.984Z,0.63
2023-01-30T00:51:28.964Z,0.52
2023-01-30T00:52:28.945Z,0.56
2023-01-30T00:53:28.926Z,0.52
2023-01-30T00:54:28.904Z,0.33
2023-01-30T00:55:28.887Z,0.41
2023-01-30T00:56:28.875Z,0.35
2023-01-30T00:57:28.850Z,0.34
2023-01-30T00:58:28.825Z,0.38
2023-01-30T00:59:28.807Z,0.40
2023-01-30T01:00:28.807Z,0.49
2023-01-30T01:01:28.771Z,0.45
2023-01-30T01:02:28.746Z,0.34
2023-01-30T01:03:28.739Z,0.31
2023-01-30T01:04:28.711Z,0.33
2023-01-30T01:05:28.692Z,0.35
2023-01-30T01:06:28.688Z,0.40
2023-01-30T01:07:28.648Z,0.26
2023-01-30T01:08:28.638Z,0.12
2023-01-30T01:09:28.614Z,0.17
2023-01-30T01:10:28.653Z,0.16
2023-01-30T01:11:28.567Z,0.10
2023-01-30T01:12:28.551Z,0.16
2023-01-30T01:13:28.529Z,0.17
2023-01-30T01:14:28.512Z,0.23
2023-01-30T01:15:28.489Z,0.23
2023-01-30T01:16:28.523Z,0.37
2023-01-30T01:17:28.449Z,0.33
2023-01-30T01:18:28.433Z,0.35
2023-01-30T01:19:28.410Z,0.38
2023-01-30T01:20:28.408Z,0.30
2023-01-30T01:21:28.374Z,0.31
2023-01-30T01:22:28.354Z,0.35
2023-01-30T01:23:28.331Z,0.31
2023-01-30T01:24:28.315Z,0.23
2023-01-30T01:25:28.336Z,0.33
2023-01-30T01:26:28.350Z,0.35
2023-01-30T01:27:28.255Z,0.30
2023-01-30T01:28:28.235Z,0.30
2023-01-30T01:29:28.215Z,0.26
2023-01-30T01:30:28.196Z,0.23
2023-01-30T01:31:28.349Z,0.37
2023-01-30T01:32:28.157Z,0.37
2023-01-30T01:33:28.133Z,0.41
2023-01-30T01:34:28.122Z,0.56
2023-01-30T01:35:28.097Z,0.45
2023-01-30T01:36:55.144Z,0.52
2023-01-30T01:37:28.106Z,0.45
2023-01-30T01:38:28.040Z,0.48
2023-01-30T01:39:28.015Z,0.37
2023-01-30T01:40:27.998Z,0.28
2023-01-30T01:41:27.980Z,0.33
2023-01-30T01:42:27.958Z,0.45
2023-01-30T01:43:27.936Z,0.62
2023-01-30T01:44:27.919Z,0.31
2023-01-30T01:45:27.897Z,0.25
2023-01-30T01:46:27.885Z,0.41
2023-01-30T01:47:27.856Z,0.33
2023-01-30T01:48:27.849Z,0.30
2023-01-30T01:49:27.827Z,0.52
2023-01-30T01:50:27.802Z,0.57
2023-01-30T01:51:27.777Z,0.49
2023-01-30T01:52:27.763Z,0.35
2023-01-30T01:53:27.739Z,0.40
2023-01-30T01:54:27.718Z,0.40
2023-01-30T01:55:27.699Z,0.35
2023-01-30T01:56:27.680Z,0.34
2023-01-30T01:57:27.666Z,0.35
2023-01-30T01:58:27.641Z,0.34
2023-01-30T01:59:27.647Z,0.33
2023-01-30T02:00:27.601Z,0.31
2023-01-30T02:01:27.736Z,0.67
2023-01-30T02:02:27.660Z,0.59
2023-01-30T02:03:27.543Z,0.43
2023-01-30T02:04:27.523Z,0.51
2023-01-30T02:05:27.503Z,0.48
2023-01-30T02:06:27.485Z,0.35
2023-01-30T02:07:27.469Z,0.37
2023-01-30T02:08:27.442Z,0.23
2023-01-30T02:09:27.423Z,0.23
2023-01-30T02:10:27.404Z,0.17
2023-01-30T02:11:27.379Z,0.17
2023-01-30T02:12:27.363Z,0.19
2023-01-30T02:13:27.343Z,0.13
2023-01-30T02:14:27.327Z,0.10
2023-01-30T02:15:27.300Z,0.13
2023-01-30T02:16:27.288Z,0.26
2023-01-30T02:17:27.290Z,0.17
2023-01-30T02:18:27.245Z,0.13
2023-01-30T02:19:27.226Z,0.04
2023-01-30T02:20:27.207Z,0.12
2023-01-30T02:21:27.188Z,0.17
2023-01-30T02:22:27.167Z,0.12
2023-01-30T02:23:27.144Z,0.10
2023-01-30T02:24:27.136Z,0.13
2023-01-30T02:25:27.104Z,0.15
2023-01-30T02:26:27.107Z,0.23
2023-01-30T02:27:27.062Z,0.16
2023-01-30T02:28:27.061Z,0.17
2023-01-30T02:29:27.024Z,0.15
2023-01-30T02:30:27.174Z,0.20
2023-01-30T02:31:27.136Z,0.10
2023-01-30T02:32:26.973Z,0.15
2023-01-30T02:33:27.001Z,0.10
2023-01-30T02:34:26.928Z,0.07
2023-01-30T02:35:26.906Z,0.13
2023-01-30T02:36:26.888Z,0.04
2023-01-30T02:37:26.864Z,0.13
2023-01-30T02:38:26.906Z,0.02
2023-01-30T02:39:26.825Z,0.08
2023-01-30T02:40:26.817Z,0.17
2023-01-30T02:41:26.787Z,0.37
2023-01-30T02:42:26.821Z,0.37
2023-01-30T02:43:26.746Z,0.33
2023-01-30T02:44:26.731Z,0.12
2023-01-30T02:45:26.717Z,0.04
2023-01-30T02:46:26.699Z,0.01
2023-01-30T02:47:26.667Z,0.02
2023-01-30T02:48:26.651Z,-0.14
2023-01-30T02:49:26.627Z,-0.03
2023-01-30T02:50:26.612Z,0.13
2023-01-30T02:51:26.591Z,0.17
2023-01-30T02:52:26.571Z,0.22
2023-01-30T02:53:26.550Z,0.37
2023-01-30T02:54:26.536Z,0.35
2023-01-30T02:55:26.517Z,0.35
2023-01-30T02:56:26.510Z,0.43
2023-01-30T02:57:26.471Z,0.49
2023-01-30T02:58:26.455Z,0.38
2023-01-30T02:59:26.430Z,0.68
2023-01-30T03:00:26.413Z,1.17
2023-01-30T03:01:26.484Z,0.89
2023-01-30T03:02:26.380Z,0.81
2023-01-30T03:03:26.358Z,1.07
2023-01-30T03:04:26.337Z,0.84
2023-01-30T03:05:26.311Z,0.84
2023-01-30T03:06:26.345Z,0.64
2023-01-30T03:07:26.271Z,0.63
2023-01-30T03:08:26.254Z,0.71
2023-01-30T03:09:26.235Z,0.74
2023-01-30T03:10:26.224Z,0.70
2023-01-30T03:11:26.200Z,0.70
2023-01-30T03:12:26.185Z,0.62
2023-01-30T03:13:26.159Z,0.63
2023-01-30T03:14:26.142Z,0.56
2023-01-30T03:15:26.317Z,0.60
2023-01-30T03:16:26.136Z,0.62
2023-01-30T03:17:26.080Z,0.60
2023-01-30T03:18:26.066Z,0.62
2023-01-30T03:19:26.040Z,0.72
2023-01-30T03:20:26.028Z,0.70
2023-01-30T03:21:25.996Z,0.78
2023-01-30T03:22:25.986Z,0.63
2023-01-30T03:23:25.959Z,0.56
2023-01-30T03:24:25.941Z,0.81
2023-01-30T03:25:25.919Z,0.82
2023-01-30T03:26:25.923Z,0.82
2023-01-30T03:27:25.889Z,0.80
2023-01-30T03:28:25.863Z,0.90
2023-01-30T03:29:25.840Z,1.10
2023-01-30T03:30:25.831Z,1.11
2023-01-30T03:31:25.904Z,1.18
2023-01-30T03:32:25.784Z,1.29
2023-01-30T03:33:25.759Z,1.24
2023-01-30T03:34:25.750Z,0.98
2023-01-30T03:35:25.723Z,0.98
2023-01-30T03:36:25.705Z,0.93
2023-01-30T03:37:25.683Z,0.92
2023-01-30T03:38:25.667Z,0.81
2023-01-30T03:39:25.660Z,0.64
2023-01-30T03:40:25.641Z,0.80
2023-01-30T03:41:25.611Z,0.84
2023-01-30T03:42:25.594Z,0.80
2023-01-30T03:43:25.565Z,0.81
2023-01-30T03:44:25.568Z,0.75
2023-01-30T03:45:25.534Z,0.77
2023-01-30T03:46:25.556Z,0.96
2023-01-30T03:47:25.490Z,0.82
2023-01-30T03:48:25.476Z,0.92
2023-01-30T03:49:25.449Z,0.88
2023-01-30T03:50:25.434Z,0.84
2023-01-30T03:51:25.410Z,0.80
2023-01-30T03:52:25.398Z,0.71
2023-01-30T03:53:25.374Z,0.77
2023-01-30T03:54:25.359Z,0.70
2023-01-30T03:55:25.333Z,0.71
2023-01-30T03:56:25.401Z,0.67
2023-01-30T03:57:25.295Z,0.64
2023-01-30T03:58:25.276Z,0.71
2023-01-30T03:59:25.266Z,0.67
2023-01-30T04:00:25.256Z,0.68
2023-01-30T04:01:25.273Z,0.75
2023-01-30T04:02:25.280Z,0.71
2023-01-30T04:03:25.178Z,0.96
2023-01-30T04:04:25.163Z,0.96
2023-01-30T04:05:25.139Z,1.14
2023-01-30T04:06:25.122Z,0.96
2023-01-30T04:07:25.114Z,1.02
2023-01-30T04:08:25.082Z,0.96
2023-01-30T04:09:25.061Z,0.98
2023-01-30T04:10:25.047Z,0.95
2023-01-30T04:11:25.020Z,0.90
2023-01-30T04:12:25.005Z,0.92
2023-01-30T04:13:24.985Z,0.86
2023-01-30T04:14:24.967Z,0.96
2023-01-30T04:15:24.944Z,1.31
2023-01-30T04:16:25.025Z,1.29
2023-01-30T04:17:24.905Z,1.34
2023-01-30T04:18:24.889Z,1.35
2023-01-30T04:19:24.866Z,1.39
2023-01-30T04:20:24.852Z,1.42
2023-01-30T04:21:24.829Z,1.39
2023-01-30T04:22:24.821Z,1.38
2023-01-30T04:23:24.789Z,1.35
2023-01-30T04:24:24.776Z,1.32
2023-01-30T04:25:24.763Z,1.35
2023-01-30T04:26:24.783Z,1.34
2023-01-30T04:27:24.715Z,1.34
2023-01-30T04:28:24.696Z,1.26
2023-01-30T04:29:24.672Z,1.21
2023-01-30T04:30:24.681Z,1.17
2023-01-30T04:31:24.657Z,1.10
2023-01-30T04:32:24.640Z,1.20
2023-01-30T04:33:24.604Z,1.02
2023-01-30T04:34:24.580Z,0.95
2023-01-30T04:35:24.565Z,0.99
2023-01-30T04:36:24.541Z,1.02
2023-01-30T04:37:24.525Z,0.98
2023-01-30T04:38:24.501Z,0.92
2023-01-30T04:39:24.482Z,0.90
2023-01-30T04:40:24.464Z,0.80
2023-01-30T04:41:24.441Z,0.80
2023-01-30T04:42:24.431Z,0.67
2023-01-30T04:43:24.419Z,0.71
2023-01-30T04:44:24.388Z,0.68
2023-01-30T04:45:24.364Z,0.70
2023-01-30T04:46:24.347Z,0.62
2023-01-30T04:47:24.376Z,0.53
2023-01-30T04:48:24.331Z,0.41
2023-01-30T04:49:24.284Z,0.43
2023-01-30T04:50:24.272Z,0.41
2023-01-30T04:51:24.247Z,0.33
2023-01-30T04:52:24.231Z,0.35
2023-01-30T04:53:24.211Z,0.26
2023-01-30T04:54:24.191Z,0.30
2023-01-30T04:55:24.172Z,0.28
2023-01-30T04:56:24.157Z,0.37
2023-01-30T04:57:24.180Z,0.48
2023-01-30T04:58:24.144Z,0.33
2023-01-30T04:59:24.094Z,0.28
2023-01-30T05:00:24.102Z,0.41
2023-01-30T05:01:24.057Z,0.38
2023-01-30T05:02:24.158Z,0.35
2023-01-30T05:03:24.016Z,0.15
2023-01-30T05:04:24.014Z,0.19
2023-01-30T05:05:23.980Z,0.07
2023-01-30T05:06:23.957Z,-0.01
2023-01-30T05:07:23.934Z,-0.03
2023-01-30T05:08:23.915Z,-0.01
2023-01-30T05:09:23.901Z,-0.02
2023-01-30T05:10:23.880Z,-0.05
2023-01-30T05:11:23.864Z,-0.02
2023-01-30T05:12:23.839Z,-0.05
2023-01-30T05:13:23.821Z,0.01
2023-01-30T05:14:23.812Z,-0.03
2023-01-30T05:15:23.784Z,0.15
2023-01-30T05:16:23.774Z,0.17
2023-01-30T05:17:23.825Z,0.16
2023-01-30T05:18:23.721Z,0.37
2023-01-30T05:19:23.801Z,0.37
2023-01-30T05:20:23.702Z,0.38
2023-01-30T05:21:23.666Z,0.35
2023-01-30T05:22:23.647Z,0.31
2023-01-30T05:23:23.624Z,0.38
2023-01-30T05:24:23.600Z,0.44
2023-01-30T05:25:23.587Z,0.34
2023-01-30T05:26:23.650Z,0.30
2023-01-30T05:27:23.544Z,0.16
2023-01-30T05:28:23.524Z,0.13
2023-01-30T05:29:23.505Z,0.17
2023-01-30T05:30:23.499Z,0.10
2023-01-30T05:31:23.502Z,0.20
2023-01-30T05:32:23.443Z,0.23
2023-01-30T05:33:23.430Z,0.23
2023-01-30T05:34:23.405Z,0.22
2023-01-30T05:35:23.388Z,0.26
2023-01-30T05:36:23.395Z,0.30
2023-01-30T05:37:23.356Z,0.33
2023-01-30T05:38:23.336Z,0.44
2023-01-30T05:39:23.308Z,0.51
2023-01-30T05:40:23.287Z,0.43
2023-01-30T05:41:23.285Z,0.51
2023-01-30T05:42:23.251Z,0.74
2023-01-30T05:43:23.237Z,0.77
2023-01-30T05:44:23.209Z,0.96
2023-01-30T05:45:23.201Z,1.06
2023-01-30T05:46:23.238Z,1.10
2023-01-30T05:47:23.153Z,1.06
2023-01-30T05:48:23.136Z,1.04
2023-01-30T05:49:23.164Z,1.07
2023-01-30T05:50:23.092Z,0.99
2023-01-30T05:51:23.076Z,0.96
2023-01-30T05:52:23.073Z,0.81
2023-01-30T05:53:23.060Z,0.93
2023-01-30T05:54:23.014Z,0.93
2023-01-30T05:55:22.996Z,0.92
2023-01-30T05:56:22.975Z,0.88
2023-01-30T05:57:22.963Z,1.04
2023-01-30T05:58:22.937Z,1.02
2023-01-30T05:59:22.968Z,0.93
2023-01-30T06:00:22.900Z,0.98
2023-01-30T06:01:22.902Z,0.84
2023-01-30T06:02:22.877Z,0.77
2023-01-30T06:03:22.861Z,0.86
2023-01-30T06:04:22.828Z,0.78
2023-01-30T06:05:22.805Z,0.80
2023-01-30T06:06:22.782Z,0.75
2023-01-30T06:07:22.768Z,0.71
2023-01-30T06:08:22.761Z,0.53
2023-01-30T06:09:22.731Z,0.62
2023-01-30T06:10:22.706Z,0.56
2023-01-30T06:11:22.687Z,0.62
2023-01-30T06:12:22.665Z,0.60
2023-01-30T06:13:22.655Z,0.64
2023-01-30T06:14:22.626Z,0.49
2023-01-30T06:15:22.608Z,0.45
2023-01-30T06:16:22.676Z,0.40
2023-01-30T06:17:22.569Z,0.35
2023-01-30T06:18:22.549Z,0.53
2023-01-30T06:19:22.529Z,0.52
2023-01-30T06:20:22.512Z,0.53
2023-01-30T06:21:22.489Z,0.57
2023-01-30T06:22:22.471Z,0.48
2023-01-30T06:23:22.454Z,0.51
2023-01-30T06:24:22.450Z,0.40
2023-01-30T06:25:22.412Z,0.45
2023-01-30T06:26:22.480Z,0.40
2023-01-30T06:27:22.387Z,0.37
2023-01-30T06:28:22.352Z,0.30
2023-01-30T06:29:22.332Z,0.23
2023-01-30T06:30:22.339Z,0.19
2023-01-30T06:31:22.364Z,0.15
2023-01-30T06:32:22.272Z,0.19
2023-01-30T06:33:22.257Z,0.13
2023-01-30T06:34:22.232Z,0.15
2023-01-30T06:35:22.217Z,0.08
2023-01-30T06:36:22.198Z,0.10
2023-01-30T06:37:22.178Z,0.05
2023-01-30T06:38:22.158Z,0.15
2023-01-30T06:39:22.140Z,0.15
2023-01-30T06:40:22.134Z,0.30
2023-01-30T06:41:22.098Z,0.45
2023-01-30T06:42:22.080Z,0.43
2023-01-30T06:43:22.061Z,0.35
2023-01-30T06:44:22.037Z,0.59
2023-01-30T06:45:22.023Z,0.52
2023-01-30T06:46:22.041Z,0.59
2023-01-30T06:47:21.978Z,0.64
2023-01-30T06:48:21.955Z,0.71
2023-01-30T06:49:21.939Z,0.88
2023-01-30T06:50:21.921Z,0.72
2023-01-30T06:51:21.912Z,0.90
2023-01-30T06:52:21.879Z,0.67
2023-01-30T06:53:21.859Z,0.64
2023-01-30T06:54:21.837Z,0.60
2023-01-30T06:55:21.820Z,0.48
2023-01-30T06:56:21.815Z,0.38
2023-01-30T06:57:21.842Z,0.28
2023-01-30T06:58:21.759Z,0.40
2023-01-30T06:59:21.739Z,0.30
2023-01-30T07:00:21.716Z,0.31
2023-01-30T07:01:21.701Z,0.22
2023-01-30T07:02:21.681Z,0.16
2023-01-30T07:03:21.666Z,0.15
2023-01-30T07:04:21.660Z,0.07
2023-01-30T07:05:21.622Z,0.04
2023-01-30T07:06:21.601Z,0.02
2023-01-30T07:07:21.583Z,-0.05
2023-01-30T07:08:23.353Z,-0.03
2023-01-30T07:09:21.542Z,-0.01
2023-01-30T07:10:21.521Z,0.02
2023-01-30T07:11:21.501Z,-0.17
2023-01-30T07:12:21.505Z,-0.17
2023-01-30T07:13:21.469Z,-0.12
2023-01-30T07:14:21.442Z,-0.13
2023-01-30T07:15:21.535Z,-0.20
2023-01-30T07:16:21.508Z,-0.16
2023-01-30T07:17:21.385Z,-0.16
2023-01-30T07:18:21.364Z,-0.03
2023-01-30T07:19:21.345Z,-0.16
2023-01-30T07:20:21.322Z,-0.19
2023-01-30T07:21:21.304Z,-0.03
2023-01-30T07:22:21.283Z,-0.05
2023-01-30T07:23:21.264Z,0.07
2023-01-30T07:24:21.244Z,-0.02
2023-01-30T07:25:21.305Z,-0.05
2023-01-30T07:26:21.224Z,0.10
2023-01-30T07:27:21.184Z,0.05
2023-01-30T07:28:21.182Z,-0.03
2023-01-30T07:29:21.146Z,-0.12
2023-01-30T07:30:21.204Z,-0.14
2023-01-30T07:31:21.170Z,-0.13
2023-01-30T07:32:21.091Z,-0.13
2023-01-30T07:33:21.067Z,-0.30
2023-01-30T07:34:21.047Z,-0.19
2023-01-30T07:35:21.412Z,0.04
2023-01-30T07:36:21.005Z,-0.01
2023-01-30T07:37:20.989Z,-0.12
2023-01-30T07:38:20.965Z,-0.05
2023-01-30T07:39:20.973Z,-0.13
2023-01-30T07:40:20.931Z,-0.17
2023-01-30T07:41:20.907Z,-0.17
2023-01-30T07:42:20.887Z,-0.23
2023-01-30T07:43:20.868Z,-0.14
2023-01-30T07:44:20.868Z,-0.16
2023-01-30T07:45:20.830Z,0.04
2023-01-30T07:46:20.807Z,0.05
2023-01-30T07:47:20.798Z,0.02
2023-01-30T07:48:20.768Z,0.01
2023-01-30T07:49:20.749Z,0.01
2023-01-30T07:50:21.012Z,0.16
2023-01-30T07:51:20.735Z,0.01
2023-01-30T07:52:20.699Z,0.07
2023-01-30T07:53:20.677Z,0.12
2023-01-30T07:54:20.654Z,0.10
2023-01-30T07:55:20.962Z,0.16
2023-01-30T07:56:20.607Z,0.17
2023-01-30T07:57:20.591Z,0.22
2023-01-30T07:58:20.567Z,0.13
2023-01-30T07:59:20.557Z,0.17
2023-01-30T08:00:20.804Z,0.13
2023-01-30T08:01:20.551Z,0.30
2023-01-30T08:02:20.492Z,0.25
2023-01-30T08:03:20.472Z,0.19
2023-01-30T08:04:20.494Z,0.35
2023-01-30T08:05:20.435Z,0.31
2023-01-30T08:06:20.412Z,0.49
2023-01-30T08:07:20.393Z,0.52
2023-01-30T08:08:20.370Z,0.56
2023-01-30T08:09:20.353Z,0.71
2023-01-30T08:10:20.796Z,0.71
2023-01-30T08:11:20.314Z,0.70
2023-01-30T08:12:20.291Z,0.70
2023-01-30T08:13:20.284Z,0.70
2023-01-30T08:14:20.252Z,0.75
2023-01-30T08:15:22.571Z,0.68
2023-01-30T08:16:20.358Z,0.67
2023-01-30T08:17:20.198Z,0.72
2023-01-30T08:18:20.178Z,0.84
2023-01-30T08:19:20.157Z,0.80
2023-01-30T08:20:20.548Z,0.78
2023-01-30T08:21:20.125Z,0.72
2023-01-30T08:22:20.095Z,0.68
2023-01-30T08:23:20.078Z,0.60
2023-01-30T08:24:20.059Z,0.60
2023-01-30T08:25:20.041Z,0.62
2023-01-30T08:26:20.055Z,0.63
2023-01-30T08:27:20.019Z,0.63
2023-01-30T08:28:19.978Z,0.62
2023-01-30T08:29:19.962Z,0.70
2023-01-30T08:30:20.344Z,0.72
2023-01-30T08:31:19.937Z,0.68
2023-01-30T08:32:19.936Z,0.80
2023-01-30T08:33:19.889Z,0.81
2023-01-30T08:34:19.863Z,0.88
2023-01-30T08:35:19.843Z,0.99
2023-01-30T08:36:19.824Z,0.95
2023-01-30T08:37:19.807Z,0.99
2023-01-30T08:38:19.784Z,0.99
2023-01-30T08:39:19.767Z,0.93
2023-01-30T08:40:20.116Z,0.93
2023-01-30T08:41:19.726Z,1.02
2023-01-30T08:42:19.715Z,1.04
2023-01-30T08:43:19.696Z,0.95
2023-01-30T08:44:19.669Z,0.99
2023-01-30T08:45:19.656Z,1.10
2023-01-30T08:46:19.636Z,1.20
2023-01-30T08:47:19.612Z,1.20
2023-01-30T08:48:19.608Z,1.28
2023-01-30T08:49:19.578Z,1.38
2023-01-30T08:50:19.907Z,1.52
2023-01-30T08:51:19.554Z,1.63
2023-01-30T08:52:19.513Z,1.77
2023-01-30T08:53:19.499Z,1.79
2023-01-30T08:54:19.475Z,2.07
2023-01-30T08:55:19.469Z,2.07
2023-01-30T08:56:19.436Z,2.09
2023-01-30T08:57:19.424Z,2.27
2023-01-30T08:58:19.400Z,2.25
2023-01-30T08:59:19.382Z,2.38
2023-01-30T09:00:19.660Z,2.43
2023-01-30T09:01:19.390Z,2.74
2023-01-30T09:02:19.347Z,2.80
2023-01-30T09:03:19.312Z,2.80
2023-01-30T09:04:19.306Z,3.05
2023-01-30T09:05:19.267Z,3.10
2023-01-30T09:06:19.258Z,3.31
2023-01-30T09:07:19.230Z,3.28
2023-01-30T09:08:19.228Z,3.34
2023-01-30T09:09:19.206Z,3.30
2023-01-30T09:10:19.508Z,3.19
2023-01-30T09:11:19.158Z,3.19
2023-01-30T09:12:19.135Z,3.08
2023-01-30T09:13:19.118Z,3.20
2023-01-30T09:14:19.097Z,3.10
2023-01-30T09:15:19.087Z,2.97
2023-01-30T09:16:19.107Z,3.04
2023-01-30T09:17:19.044Z,2.97
2023-01-30T09:18:19.042Z,3.10
2023-01-30T09:19:19.006Z,3.17
2023-01-30T09:20:19.390Z,3.19
2023-01-30T09:21:18.979Z,3.23
2023-01-30T09:22:18.950Z,3.22
2023-01-30T09:23:18.933Z,3.35
2023-01-30T09:24:18.913Z,3.37
2023-01-30T09:25:18.932Z,3.50
2023-01-30T09:26:18.900Z,3.45
2023-01-30T09:27:18.860Z,3.54
2023-01-30T09:28:18.841Z,3.53
2023-01-30T09:29:18.876Z,3.71
2023-01-30T09:30:19.317Z,3.68
2023-01-30T09:31:18.894Z,3.74
2023-01-30T09:32:18.816Z,3.82
2023-01-30T09:33:18.751Z,3.86
2023-01-30T09:34:18.739Z,3.90
2023-01-30T09:35:18.733Z,3.95
2023-01-30T09:36:18.720Z,4.02
2023-01-30T09:37:18.678Z,4.10
2023-01-30T09:38:18.661Z,3.98
2023-01-30T09:39:18.647Z,3.98
2023-01-30T09:40:19.056Z,3.92
2023-01-30T09:41:18.602Z,3.96
2023-01-30T09:42:18.589Z,3.98
2023-01-30T09:43:18.572Z,4.02
2023-01-30T09:44:18.555Z,4.06
2023-01-30T09:45:18.530Z,4.08
2023-01-30T09:46:18.561Z,3.99
2023-01-30T09:47:18.490Z,4.08
2023-01-30T09:48:18.478Z,4.16
2023-01-30T09:49:18.458Z,4.32
2023-01-30T09:50:18.910Z,4.39
2023-01-30T09:51:18.421Z,4.49
2023-01-30T09:52:18.456Z,4.62
2023-01-30T09:53:18.386Z,4.59
2023-01-30T09:54:18.374Z,4.39
2023-01-30T09:55:18.355Z,4.44
2023-01-30T09:56:18.343Z,4.46
2023-01-30T09:57:20.865Z,4.47
2023-01-30T09:58:18.304Z,4.64
2023-01-30T09:59:18.279Z,4.62
2023-01-30T10:00:18.653Z,4.50
2023-01-30T10:01:20.562Z,4.51
2023-01-30T10:02:18.233Z,4.49
2023-01-30T10:03:18.253Z,4.61
2023-01-30T10:04:18.225Z,4.53
2023-01-30T10:05:18.175Z,4.64
2023-01-30T10:06:18.160Z,4.59
2023-01-30T10:07:18.139Z,4.50
2023-01-30T10:08:18.182Z,4.51
2023-01-30T10:09:18.109Z,4.68
2023-01-30T10:10:18.508Z,4.84
2023-01-30T10:11:18.068Z,4.69
2023-01-30T10:12:18.062Z,4.68
2023-01-30T10:13:18.037Z,4.84
2023-01-30T10:14:18.020Z,4.67
2023-01-30T10:15:17.998Z,4.74
2023-01-30T10:16:18.012Z,4.72
2023-01-30T10:17:17.975Z,4.75
2023-01-30T10:18:17.973Z,4.65
2023-01-30T10:19:23.386Z,4.68
2023-01-30T10:20:17.931Z,4.61
2023-01-30T10:21:17.896Z,4.67
2023-01-30T10:22:17.886Z,4.57
2023-01-30T10:23:17.858Z,4.71
2023-01-30T10:24:17.863Z,4.74
2023-01-30T10:25:17.824Z,4.67
2023-01-30T10:26:17.858Z,4.69
2023-01-30T10:27:17.789Z,4.71
2023-01-30T10:28:17.795Z,4.69
2023-01-30T10:29:17.752Z,4.68
2023-01-30T10:30:18.092Z,4.72
2023-01-30T10:31:17.829Z,4.83
2023-01-30T10:32:17.703Z,4.68
2023-01-30T10:33:17.683Z,4.80
2023-01-30T10:34:17.668Z,4.75
2023-01-30T10:35:17.648Z,4.69
2023-01-30T10:36:17.634Z,4.61
2023-01-30T10:37:17.613Z,4.71
2023-01-30T10:38:17.605Z,4.64
2023-01-30T10:39:17.579Z,4.79
2023-01-30T10:40:17.808Z,4.80
2023-01-30T10:41:17.545Z,4.86
2023-01-30T10:42:17.531Z,4.80
2023-01-30T10:43:17.510Z,4.71
2023-01-30T10:44:17.494Z,4.79
2023-01-30T10:45:17.479Z,4.75
2023-01-30T10:46:17.520Z,4.84
2023-01-30T10:47:17.772Z,5.01
2023-01-30T10:48:17.431Z,5.06
2023-01-30T10:49:17.413Z,4.99
2023-01-30T10:50:17.724Z,5.05
2023-01-30T10:51:17.369Z,5.11
2023-01-30T10:52:17.356Z,5.22
2023-01-30T10:53:17.335Z,5.22
2023-01-30T10:54:19.673Z,5.32
2023-01-30T10:55:22.151Z,5.35
2023-01-30T10:56:17.314Z,5.48
2023-01-30T10:57:17.268Z,5.70
2023-01-30T10:58:17.258Z,5.66
2023-01-30T10:59:17.239Z,5.78
2023-01-30T11:00:17.530Z,5.77
2023-01-30T11:01:17.198Z,5.81
2023-01-30T11:02:17.188Z,5.87
2023-01-30T11:03:17.255Z,5.96
2023-01-30T11:04:17.157Z,6.10
2023-01-30T11:05:17.600Z,6.10
2023-01-30T11:06:17.137Z,6.14
2023-01-30T11:07:17.127Z,6.01
2023-01-30T11:08:17.086Z,6.17
2023-01-30T11:09:17.064Z,6.32
2023-01-30T11:10:17.054Z,6.27
2023-01-30T11:11:17.028Z,6.24
2023-01-30T11:12:17.038Z,6.25
2023-01-30T11:13:17.010Z,6.16
2023-01-30T11:14:17.027Z,6.20
2023-01-30T11:15:17.396Z,6.21
2023-01-30T11:16:17.012Z,6.21
2023-01-30T11:17:16.949Z,6.28
2023-01-30T11:19:20.075Z,6.30
2023-01-30T11:20:17.353Z,6.27
2023-01-30T11:21:16.877Z,6.36
2023-01-30T11:22:16.888Z,6.36
2023-01-30T11:23:16.830Z,6.43
2023-01-30T11:24:16.853Z,6.42
2023-01-30T11:25:17.297Z,6.45
2023-01-30T11:26:16.825Z,6.57
2023-01-30T11:27:16.869Z,6.60
2023-01-30T11:28:16.778Z,6.68
2023-01-30T11:29:16.780Z,6.72
2023-01-30T11:30:17.195Z,6.79
2023-01-30T11:31:17.415Z,6.79
2023-01-30T11:32:16.702Z,6.71
2023-01-30T11:33:16.663Z,6.90
2023-01-30T11:34:16.669Z,7.00
2023-01-30T11:35:16.627Z,6.94
2023-01-30T11:36:16.619Z,6.93
2023-01-30T11:37:16.601Z,6.91
2023-01-30T11:38:16.585Z,6.89
2023-01-30T11:39:16.564Z,6.99
2023-01-30T11:40:16.986Z,7.07
2023-01-30T11:41:16.530Z,7.08
2023-01-30T11:42:16.516Z,7.14
2023-01-30T11:43:16.495Z,7.19
2023-01-30T11:44:16.506Z,7.27
2023-01-30T11:45:18.329Z,7.42
2023-01-30T11:46:16.453Z,7.36
2023-01-30T11:47:16.432Z,7.41
2023-01-30T11:48:32.723Z,7.39
2023-01-30T11:49:47.308Z,7.34
2023-01-30T11:50:25.505Z,7.41
2023-01-30T11:51:16.368Z,7.44
2023-01-30T11:52:16.361Z,7.51
2023-01-30T11:53:16.343Z,7.54
2023-01-30T11:54:16.324Z,7.74
2023-01-30T11:55:16.310Z,7.67
2023-01-30T11:56:16.296Z,7.74
2023-01-30T11:57:16.277Z,7.77
2023-01-30T11:58:16.260Z,7.74
2023-01-30T11:59:16.256Z,7.82
2023-01-30T12:00:16.711Z,7.84
2023-01-30T12:01:16.229Z,7.76
2023-01-30T12:02:16.259Z,7.57
2023-01-30T12:03:16.250Z,7.62
2023-01-30T12:04:16.166Z,7.62
2023-01-30T12:05:16.146Z,7.67
2023-01-30T12:06:16.136Z,7.71
2023-01-30T12:07:16.114Z,7.82
2023-01-30T12:08:18.604Z,7.74
2023-01-30T12:09:16.084Z,7.73
2023-01-30T12:10:16.491Z,7.69
2023-01-30T12:11:16.054Z,7.58
2023-01-30T12:12:16.039Z,7.62
2023-01-30T12:13:16.019Z,7.57
2023-01-30T12:14:16.016Z,7.45
2023-01-30T12:15:15.987Z,7.42
2023-01-30T12:16:16.048Z,7.41
2023-01-30T12:17:15.961Z,7.29
2023-01-30T12:18:15.947Z,7.27
2023-01-30T12:19:15.931Z,7.39
2023-01-30T12:20:16.470Z,7.42
2023-01-30T12:21:15.902Z,7.37
2023-01-30T12:22:15.885Z,7.45
2023-01-30T12:23:15.866Z,7.66
2023-01-30T12:24:17.867Z,7.67
2023-01-30T12:25:15.850Z,7.76
2023-01-30T12:26:15.866Z,7.88
2023-01-30T12:27:15.801Z,8.02
2023-01-30T12:28:15.788Z,7.96
2023-01-30T12:29:15.770Z,7.96
2023-01-30T12:30:15.853Z,8.14
2023-01-30T12:31:15.738Z,8.22
2023-01-30T12:32:15.795Z,8.28
2023-01-30T12:33:15.967Z,8.27
2023-01-30T12:34:15.698Z,8.37
2023-01-30T12:35:16.155Z,8.37
2023-01-30T12:36:15.664Z,8.36
2023-01-30T12:37:15.650Z,8.45
2023-01-30T12:38:15.633Z,8.45
2023-01-30T12:39:15.618Z,8.57
2023-01-30T12:40:15.652Z,8.67
2023-01-30T12:41:15.590Z,8.60
2023-01-30T12:42:15.585Z,8.60
2023-01-30T12:43:15.555Z,8.49
2023-01-30T12:44:15.541Z,8.45
2023-01-30T12:45:15.522Z,8.36
2023-01-30T12:46:15.591Z,8.42
2023-01-30T12:47:15.496Z,8.36
2023-01-30T12:48:15.517Z,8.37
2023-01-30T12:49:15.463Z,8.46
2023-01-30T12:50:15.458Z,8.45
2023-01-30T12:51:15.433Z,8.46
2023-01-30T12:52:15.421Z,8.47
2023-01-30T12:53:15.406Z,8.29
2023-01-30T12:54:15.392Z,8.25
2023-01-30T12:56:15.365Z,8.29
2023-01-30T12:57:15.339Z,8.29
2023-01-30T12:58:15.333Z,8.34
2023-01-30T12:59:15.311Z,8.17
2023-01-30T13:00:15.301Z,8.18
2023-01-30T13:01:15.327Z,8.13
2023-01-30T13:02:15.339Z,8.07
2023-01-30T13:03:15.252Z,8.03
2023-01-30T13:04:15.261Z,8.22
2023-01-30T13:05:15.223Z,8.14
2023-01-30T13:06:15.208Z,8.03
2023-01-30T13:07:15.191Z,7.92
2023-01-30T13:08:15.191Z,7.86
2023-01-30T13:09:15.158Z,7.81
2023-01-30T13:10:16.504Z,7.74
2023-01-30T13:11:15.128Z,7.76
2023-01-30T13:12:15.118Z,7.67
2023-01-30T13:13:15.105Z,7.58
2023-01-30T13:14:15.086Z,7.58
2023-01-30T13:15:15.122Z,7.54
2023-01-30T13:16:15.104Z,7.41
2023-01-30T13:17:15.037Z,7.54
2023-01-30T13:18:15.028Z,7.52
2023-01-30T13:19:15.021Z,7.67